sensor_id;sensor_type;location;lat;lon;timestamp;pressure;altitude;pressure_sealevel;temperature;humidity
17309;BME280;8772;42.804;23.426;2022-09-20T00:00:41;94707.84;;;10.57;100.00
17309;BME280;8772;42.804;23.426;2022-09-20T00:03:09;94698.66;;;10.58;100.00
17309;BME280;8772;42.804;23.426;2022-09-20T00:05:41;94702.69;;;10.47;100.00
17309;BME280;8772;42.804;23.426;2022-09-20T00:08:12;94705.75;;;10.45;100.00
17309;BME280;8772;42.804;23.426;2022-09-20T00:10:39;94704.25;;;10.44;100.00
17309;BME280;8772;42.804;23.426;2022-09-20T00:13:08;94709.25;;;10.42;100.00
17309;BME280;8772;42.804;23.426;2022-09-20T00:15:39;94715.84;;;10.34;100.00
17309;BME280;8772;42.804;23.426;2022-09-20T00:18:06;94710.50;;;10.34;100.00
17309;BME280;8772;42.804;23.426;2022-09-20T00:20:33;94713.94;;;10.35;100.00
17309;BME280;8772;42.804;23.426;2022-09-20T00:23:00;94702.00;;;10.39;100.00
17309;BME280;8772;42.804;23.426;2022-09-20T00:25:28;94710.41;;;10.41;100.00
17309;BME280;8772;42.804;23.426;2022-09-20T00:27:55;94702.72;;;10.43;100.00
17309;BME280;8772;42.804;23.426;2022-09-20T00:30:22;94702.72;;;10.43;100.00
17309;BME280;8772;42.804;23.426;2022-09-20T00:32:49;94701.13;;;10.46;100.00
17309;BME280;8772;42.804;23.426;2022-09-20T00:35:16;94697.34;;;10.47;100.00
17309;BME280;8772;42.804;23.426;2022-09-20T00:37:42;94689.75;;;10.42;100.00
17309;BME280;8772;42.804;23.426;2022-09-20T00:40:12;94695.97;;;10.35;100.00
17309;BME280;8772;42.804;23.426;2022-09-20T00:42:41;94696.31;;;10.37;100.00
17309;BME280;8772;42.804;23.426;2022-09-20T00:45:16;94702.13;;;10.32;100.00
17309;BME280;8772;42.804;23.426;2022-09-20T00:47:48;94703.00;;;10.26;100.00
17309;BME280;8772;42.804;23.426;2022-09-20T00:50:25;94707.94;;;10.27;100.00
17309;BME280;8772;42.804;23.426;2022-09-20T00:52:57;94703.06;;;10.22;100.00
17309;BME280;8772;42.804;23.426;2022-09-20T00:55:26;94703.22;;;10.12;100.00
17309;BME280;8772;42.804;23.426;2022-09-20T00:57:56;94700.75;;;9.98;100.00
17309;BME280;8772;42.804;23.426;2022-09-20T01:00:24;94692.72;;;9.98;100.00
17309;BME280;8772;42.804;23.426;2022-09-20T01:02:54;94694.31;;;9.92;100.00
17309;BME280;8772;42.804;23.426;2022-09-20T01:08:48;94709.44;;;9.75;100.00
17309;BME280;8772;42.804;23.426;2022-09-20T01:11:16;94700.09;;;9.60;100.00
17309;BME280;8772;42.804;23.426;2022-09-20T01:13:45;94697.94;;;9.52;100.00
17309;BME280;8772;42.804;23.426;2022-09-20T01:16:14;94700.09;;;9.30;100.00
17309;BME280;8772;42.804;23.426;2022-09-20T01:18:42;94700.19;;;9.23;100.00
17309;BME280;8772;42.804;23.426;2022-09-20T01:21:10;94705.22;;;9.14;100.00
17309;BME280;8772;42.804;23.426;2022-09-20T01:23:45;94707.63;;;9.05;100.00
17309;BME280;8772;42.804;23.426;2022-09-20T01:26:36;94703.22;;;8.88;100.00
17309;BME280;8772;42.804;23.426;2022-09-20T01:29:17;94710.22;;;8.75;100.00
17309;BME280;8772;42.804;23.426;2022-09-20T01:31:52;94710.03;;;8.53;100.00
17309;BME280;8772;42.804;23.426;2022-09-20T01:34:23;94712.00;;;8.49;100.00
17309;BME280;8772;42.804;23.426;2022-09-20T01:36:55;94712.34;;;8.51;100.00
17309;BME280;8772;42.804;23.426;2022-09-20T01:39:35;94707.50;;;8.42;100.00
17309;BME280;8772;42.804;23.426;2022-09-20T01:42:07;94696.19;;;8.28;100.00
17309;BME280;8772;42.804;23.426;2022-09-20T01:44:39;94691.00;;;8.07;100.00
17309;BME280;8772;42.804;23.426;2022-09-20T01:47:17;94689.59;;;7.92;100.00
17309;BME280;8772;42.804;23.426;2022-09-20T01:49:54;94696.03;;;7.91;100.00
17309;BME280;8772;42.804;23.426;2022-09-20T01:52:54;94698.72;;;7.91;100.00
17309;BME280;8772;42.804;23.426;2022-09-20T01:55:41;94693.44;;;7.84;100.00
17309;BME280;8772;42.804;23.426;2022-09-20T01:58:35;94701.97;;;7.54;100.00
17309;BME280;8772;42.804;23.426;2022-09-20T02:01:37;94708.81;;;7.59;100.00
17309;BME280;8772;42.804;23.426;2022-09-20T02:07:35;94715.72;;;7.39;100.00
17309;BME280;8772;42.804;23.426;2022-09-20T02:13:27;94713.19;;;7.18;100.00
17309;BME280;8772;42.804;23.426;2022-09-20T02:16:13;94711.25;;;7.22;100.00
17309;BME280;8772;42.804;23.426;2022-09-20T02:19:09;94700.25;;;7.13;100.00
17309;BME280;8772;42.804;23.426;2022-09-20T02:21:46;94692.31;;;7.09;100.00
17309;BME280;8772;42.804;23.426;2022-09-20T02:24:24;94690.44;;;7.03;100.00
17309;BME280;8772;42.804;23.426;2022-09-20T02:27:01;94704.50;;;6.96;100.00
17309;BME280;8772;42.804;23.426;2022-09-20T02:29:41;94698.81;;;7.01;100.00
17309;BME280;8772;42.804;23.426;2022-09-20T02:32:31;94701.47;;;6.98;100.00
17309;BME280;8772;42.804;23.426;2022-09-20T02:35:13;94706.06;;;6.87;100.00
17309;BME280;8772;42.804;23.426;2022-09-20T02:37:54;94703.03;;;6.78;100.00
17309;BME280;8772;42.804;23.426;2022-09-20T02:40:35;94700.78;;;6.80;100.00
17309;BME280;8772;42.804;23.426;2022-09-20T02:43:11;94707.59;;;6.77;100.00
17309;BME280;8772;42.804;23.426;2022-09-20T02:45:45;94708.34;;;6.78;100.00
17309;BME280;8772;42.804;23.426;2022-09-20T02:48:16;94702.69;;;6.62;100.00
17309;BME280;8772;42.804;23.426;2022-09-20T02:50:53;94701.53;;;6.63;100.00
17309;BME280;8772;42.804;23.426;2022-09-20T02:53:33;94706.09;;;6.66;100.00
17309;BME280;8772;42.804;23.426;2022-09-20T02:56:07;94712.94;;;6.60;100.00
17309;BME280;8772;42.804;23.426;2022-09-20T02:58:45;94708.00;;;6.62;100.00
17309;BME280;8772;42.804;23.426;2022-09-20T03:01:24;94707.63;;;6.53;100.00
17309;BME280;8772;42.804;23.426;2022-09-20T03:04:02;94703.09;;;6.50;100.00
17309;BME280;8772;42.804;23.426;2022-09-20T03:06:42;94711.44;;;6.42;100.00
17309;BME280;8772;42.804;23.426;2022-09-20T03:09:20;94704.25;;;6.35;100.00
17309;BME280;8772;42.804;23.426;2022-09-20T03:12:01;94705.38;;;6.27;100.00
17309;BME280;8772;42.804;23.426;2022-09-20T03:14:35;94708.41;;;6.29;100.00
17309;BME280;8772;42.804;23.426;2022-09-20T03:17:09;94721.31;;;6.27;100.00
17309;BME280;8772;42.804;23.426;2022-09-20T03:19:47;94719.41;;;6.21;100.00
17309;BME280;8772;42.804;23.426;2022-09-20T03:22:27;94725.84;;;6.16;100.00
17309;BME280;8772;42.804;23.426;2022-09-20T03:25:16;94731.94;;;6.24;100.00
17309;BME280;8772;42.804;23.426;2022-09-20T03:27:57;94733.84;;;6.23;100.00
17309;BME280;8772;42.804;23.426;2022-09-20T03:30:47;94733.09;;;6.19;100.00
17309;BME280;8772;42.804;23.426;2022-09-20T03:33:25;94747.50;;;6.18;100.00
17309;BME280;8772;42.804;23.426;2022-09-20T03:36:05;94738.38;;;6.12;100.00
17309;BME280;8772;42.804;23.426;2022-09-20T03:38:51;94741.00;;;5.91;100.00
17309;BME280;8772;42.804;23.426;2022-09-20T03:41:37;94741.28;;;5.55;100.00
17309;BME280;8772;42.804;23.426;2022-09-20T03:44:21;94739.00;;;5.46;100.00
17309;BME280;8772;42.804;23.426;2022-09-20T03:46:50;94749.59;;;5.46;100.00
17309;BME280;8772;42.804;23.426;2022-09-20T03:49:48;94745.47;;;5.59;100.00
17309;BME280;8772;42.804;23.426;2022-09-20T03:52:29;94739.34;;;5.38;100.00
17309;BME280;8772;42.804;23.426;2022-09-20T03:55:23;94746.50;;;5.34;100.00
17309;BME280;8772;42.804;23.426;2022-09-20T03:58:18;94743.91;;;5.48;100.00
17309;BME280;8772;42.804;23.426;2022-09-20T04:01:06;94738.59;;;5.41;100.00
17309;BME280;8772;42.804;23.426;2022-09-20T04:03:39;94739.31;;;5.31;100.00
17309;BME280;8772;42.804;23.426;2022-09-20T04:06:36;94745.03;;;5.47;100.00
17309;BME280;8772;42.804;23.426;2022-09-20T04:09:30;94752.19;;;5.32;100.00
17309;BME280;8772;42.804;23.426;2022-09-20T04:12:06;94757.91;;;5.41;100.00
17309;BME280;8772;42.804;23.426;2022-09-20T04:14:40;94754.47;;;5.37;100.00
17309;BME280;8772;42.804;23.426;2022-09-20T04:17:24;94762.88;;;5.50;100.00
17309;BME280;8772;42.804;23.426;2022-09-20T04:20:00;94762.09;;;5.49;100.00
17309;BME280;8772;42.804;23.426;2022-09-20T04:22:28;94759.06;;;5.44;100.00
17309;BME280;8772;42.804;23.426;2022-09-20T04:25:00;94772.72;;;5.53;100.00
17309;BME280;8772;42.804;23.426;2022-09-20T04:27:37;94768.97;;;5.61;100.00
17309;BME280;8772;42.804;23.426;2022-09-20T04:30:15;94774.66;;;5.66;100.00
17309;BME280;8772;42.804;23.426;2022-09-20T04:32:46;94771.22;;;5.55;100.00
17309;BME280;8772;42.804;23.426;2022-09-20T04:35:24;94776.91;;;5.57;100.00
17309;BME280;8772;42.804;23.426;2022-09-20T04:38:17;94774.59;;;5.45;100.00
17309;BME280;8772;42.804;23.426;2022-09-20T04:41:15;94780.16;;;5.19;100.00
17309;BME280;8772;42.804;23.426;2022-09-20T04:44:11;94783.59;;;5.23;100.00
17309;BME280;8772;42.804;23.426;2022-09-20T04:53:13;94777.56;;;5.30;100.00
17309;BME280;8772;42.804;23.426;2022-09-20T04:55:54;94775.31;;;5.35;100.00
17309;BME280;8772;42.804;23.426;2022-09-20T04:58:33;94776.06;;;5.39;100.00
17309;BME280;8772;42.804;23.426;2022-09-20T05:01:39;94777.25;;;5.49;100.00
17309;BME280;8772;42.804;23.426;2022-09-20T05:08:03;94782.50;;;5.31;100.00
17309;BME280;8772;42.804;23.426;2022-09-20T05:11:00;94788.59;;;5.42;100.00
17309;BME280;8772;42.804;23.426;2022-09-20T05:13:49;94777.59;;;5.40;100.00
17309;BME280;8772;42.804;23.426;2022-09-20T05:16:28;94791.63;;;5.44;100.00
17309;BME280;8772;42.804;23.426;2022-09-20T05:19:19;94787.13;;;5.55;100.00
17309;BME280;8772;42.804;23.426;2022-09-20T05:22:24;94794.34;;;5.62;100.00
17309;BME280;8772;42.804;23.426;2022-09-20T05:25:25;94797.03;;;5.72;100.00
17309;BME280;8772;42.804;23.426;2022-09-20T05:28:01;94788.69;;;5.70;100.00
17309;BME280;8772;42.804;23.426;2022-09-20T05:30:35;94798.63;;;5.87;100.00
17309;BME280;8772;42.804;23.426;2022-09-20T05:33:14;94800.94;;;5.99;100.00
17309;BME280;8772;42.804;23.426;2022-09-20T05:35:53;94791.09;;;6.10;100.00
17309;BME280;8772;42.804;23.426;2022-09-20T05:38:33;94788.84;;;6.19;100.00
17309;BME280;8772;42.804;23.426;2022-09-20T05:41:11;94800.97;;;6.31;100.00
17309;BME280;8772;42.804;23.426;2022-09-20T05:43:50;94801.38;;;6.43;100.00
17309;BME280;8772;42.804;23.426;2022-09-20T05:46:31;94802.09;;;6.54;100.00
17309;BME280;8772;42.804;23.426;2022-09-20T05:49:10;94807.81;;;6.66;100.00
17309;BME280;8772;42.804;23.426;2022-09-20T05:52:03;94797.19;;;6.80;100.00
17309;BME280;8772;42.804;23.426;2022-09-20T05:54:52;94800.22;;;6.93;100.00
17309;BME280;8772;42.804;23.426;2022-09-20T05:57:30;94800.19;;;7.07;100.00
17309;BME280;8772;42.804;23.426;2022-09-20T06:00:06;94804.72;;;7.17;100.00
17309;BME280;8772;42.804;23.426;2022-09-20T06:02:41;94801.63;;;7.29;100.00
17309;BME280;8772;42.804;23.426;2022-09-20T06:05:14;94807.31;;;7.38;100.00
17309;BME280;8772;42.804;23.426;2022-09-20T06:10:42;94809.91;;;7.59;100.00
17309;BME280;8772;42.804;23.426;2022-09-20T06:13:32;94820.50;;;7.66;100.00
17309;BME280;8772;42.804;23.426;2022-09-20T06:16:02;94811.72;;;7.83;100.00
17309;BME280;8772;42.804;23.426;2022-09-20T06:18:33;94805.16;;;7.98;100.00
17309;BME280;8772;42.804;23.426;2022-09-20T06:21:15;94803.19;;;8.12;100.00
17309;BME280;8772;42.804;23.426;2022-09-20T06:23:49;94806.59;;;8.20;100.00
17309;BME280;8772;42.804;23.426;2022-09-20T06:26:18;94800.81;;;8.32;100.00
17309;BME280;8772;42.804;23.426;2022-09-20T06:28:50;94814.06;;;8.42;100.00
17309;BME280;8772;42.804;23.426;2022-09-20T06:31:19;94811.69;;;8.55;100.00
17309;BME280;8772;42.804;23.426;2022-09-20T06:33:51;94817.69;;;8.65;100.00
17309;BME280;8772;42.804;23.426;2022-09-20T06:36:23;94811.16;;;8.73;100.00
17309;BME280;8772;42.804;23.426;2022-09-20T06:39:16;94811.03;;;8.87;100.00
17309;BME280;8772;42.804;23.426;2022-09-20T06:42:05;94812.50;;;8.95;100.00
17309;BME280;8772;42.804;23.426;2022-09-20T06:44:34;94807.41;;;9.08;100.00
17309;BME280;8772;42.804;23.426;2022-09-20T06:47:05;94801.91;;;9.25;100.00
17309;BME280;8772;42.804;23.426;2022-09-20T06:49:34;94800.59;;;9.40;100.00
17309;BME280;8772;42.804;23.426;2022-09-20T06:52:03;94810.09;;;9.45;100.00
17309;BME280;8772;42.804;23.426;2022-09-20T06:54:32;94800.81;;;9.60;100.00
17309;BME280;8772;42.804;23.426;2022-09-20T06:57:02;94812.16;;;9.67;100.00
17309;BME280;8772;42.804;23.426;2022-09-20T06:59:30;94812.00;;;9.78;100.00
17309;BME280;8772;42.804;23.426;2022-09-20T07:01:57;94816.16;;;9.82;100.00
17309;BME280;8772;42.804;23.426;2022-09-20T07:04:24;94815.63;;;9.94;100.00
17309;BME280;8772;42.804;23.426;2022-09-20T07:06:51;94815.47;;;10.08;100.00
17309;BME280;8772;42.804;23.426;2022-09-20T07:09:19;94822.94;;;10.20;100.00
17309;BME280;8772;42.804;23.426;2022-09-20T07:11:47;94826.94;;;10.35;100.00
17309;BME280;8772;42.804;23.426;2022-09-20T07:14:14;94824.84;;;10.50;100.00
17309;BME280;8772;42.804;23.426;2022-09-20T07:16:41;94827.00;;;10.58;100.00
17309;BME280;8772;42.804;23.426;2022-09-20T07:19:08;94826.72;;;10.76;100.00
17309;BME280;8772;42.804;23.426;2022-09-20T07:21:34;94829.47;;;10.95;100.00
17309;BME280;8772;42.804;23.426;2022-09-20T07:24:01;94834.94;;;11.11;100.00
17309;BME280;8772;42.804;23.426;2022-09-20T07:26:29;94829.00;;;11.23;100.00
17309;BME280;8772;42.804;23.426;2022-09-20T07:28:58;94832.47;;;11.43;100.00
17309;BME280;8772;42.804;23.426;2022-09-20T07:31:28;94824.44;;;11.66;100.00
17309;BME280;8772;42.804;23.426;2022-09-20T07:33:55;94818.66;;;11.87;100.00
17309;BME280;8772;42.804;23.426;2022-09-20T07:36:22;94834.44;;;12.01;100.00
17309;BME280;8772;42.804;23.426;2022-09-20T07:38:50;94824.19;;;12.15;100.00
17309;BME280;8772;42.804;23.426;2022-09-20T07:41:17;94824.56;;;12.33;100.00
17309;BME280;8772;42.804;23.426;2022-09-20T07:43:45;94821.78;;;12.56;100.00
17309;BME280;8772;42.804;23.426;2022-09-20T07:46:13;94823.72;;;12.72;100.00
17309;BME280;8772;42.804;23.426;2022-09-20T07:48:40;94819.41;;;12.94;100.00
17309;BME280;8772;42.804;23.426;2022-09-20T07:51:09;94818.16;;;12.98;100.00
17309;BME280;8772;42.804;23.426;2022-09-20T07:53:38;94809.66;;;13.16;100.00
17309;BME280;8772;42.804;23.426;2022-09-20T07:56:06;94812.72;;;13.46;100.00
17309;BME280;8772;42.804;23.426;2022-09-20T07:58:34;94819.78;;;13.68;100.00
17309;BME280;8772;42.804;23.426;2022-09-20T08:01:04;94814.22;;;13.75;100.00
17309;BME280;8772;42.804;23.426;2022-09-20T08:03:34;94811.28;;;13.98;100.00
17309;BME280;8772;42.804;23.426;2022-09-20T08:06:03;94810.22;;;14.08;100.00
17309;BME280;8772;42.804;23.426;2022-09-20T08:08:31;94808.19;;;14.12;73.27
17309;BME280;8772;42.804;23.426;2022-09-20T08:11:03;94805.03;;;14.42;72.04
17309;BME280;8772;42.804;23.426;2022-09-20T08:13:34;94813.00;;;14.58;66.67
17309;BME280;8772;42.804;23.426;2022-09-20T08:16:02;94802.66;;;14.82;65.71
17309;BME280;8772;42.804;23.426;2022-09-20T08:18:29;94810.84;;;15.03;62.20
17309;BME280;8772;42.804;23.426;2022-09-20T08:21:02;94804.63;;;15.28;64.20
17309;BME280;8772;42.804;23.426;2022-09-20T08:23:32;94801.38;;;15.45;61.57
17309;BME280;8772;42.804;23.426;2022-09-20T08:25:59;94806.66;;;15.48;64.07
17309;BME280;8772;42.804;23.426;2022-09-20T08:28:27;94810.41;;;15.51;61.35
17309;BME280;8772;42.804;23.426;2022-09-20T08:31:00;94811.69;;;15.59;66.64
17309;BME280;8772;42.804;23.426;2022-09-20T08:33:26;94812.06;;;15.70;65.22
17309;BME280;8772;42.804;23.426;2022-09-20T08:35:53;94807.06;;;15.81;64.00
17309;BME280;8772;42.804;23.426;2022-09-20T08:38:22;94804.06;;;15.79;60.42
17309;BME280;8772;42.804;23.426;2022-09-20T08:40:51;94803.38;;;15.87;62.64
17309;BME280;8772;42.804;23.426;2022-09-20T08:43:19;94801.34;;;16.00;64.31
17309;BME280;8772;42.804;23.426;2022-09-20T08:45:46;94798.94;;;16.24;63.15
17309;BME280;8772;42.804;23.426;2022-09-20T08:48:15;94797.88;;;16.43;63.46
17309;BME280;8772;42.804;23.426;2022-09-20T08:50:43;94792.25;;;16.59;64.31
17309;BME280;8772;42.804;23.426;2022-09-20T08:53:12;94791.41;;;16.71;61.24
17309;BME280;8772;42.804;23.426;2022-09-20T08:55:42;94786.06;;;16.89;57.36
17309;BME280;8772;42.804;23.426;2022-09-20T08:58:10;94784.22;;;16.77;55.82
17309;BME280;8772;42.804;23.426;2022-09-20T09:00:38;94794.13;;;16.80;57.71
17309;BME280;8772;42.804;23.426;2022-09-20T09:03:10;94792.78;;;16.75;56.88
17309;BME280;8772;42.804;23.426;2022-09-20T09:05:44;94791.41;;;16.71;57.11
17309;BME280;8772;42.804;23.426;2022-09-20T09:08:13;94785.09;;;16.65;57.51
17309;BME280;8772;42.804;23.426;2022-09-20T09:10:44;94771.59;;;16.65;57.28
17309;BME280;8772;42.804;23.426;2022-09-20T09:13:21;94762.22;;;16.26;56.30
17309;BME280;8772;42.804;23.426;2022-09-20T09:15:54;94776.03;;;16.28;58.96
17309;BME280;8772;42.804;23.426;2022-09-20T09:18:29;94764.81;;;16.30;61.13
17309;BME280;8772;42.804;23.426;2022-09-20T09:20:56;94768.19;;;16.43;57.55
17309;BME280;8772;42.804;23.426;2022-09-20T09:23:28;94758.00;;;16.47;55.92
17309;BME280;8772;42.804;23.426;2022-09-20T09:26:03;94758.31;;;16.49;58.70
17309;BME280;8772;42.804;23.426;2022-09-20T09:28:30;94764.94;;;16.57;59.38
17309;BME280;8772;42.804;23.426;2022-09-20T09:31:11;94752.09;;;16.70;55.73
17309;BME280;8772;42.804;23.426;2022-09-20T09:33:42;94746.47;;;16.46;53.46
17309;BME280;8772;42.804;23.426;2022-09-20T09:36:13;94743.09;;;16.64;57.92
17309;BME280;8772;42.804;23.426;2022-09-20T09:38:42;94745.84;;;16.91;56.06
17309;BME280;8772;42.804;23.426;2022-09-20T09:41:22;94743.72;;;16.77;54.62
17309;BME280;8772;42.804;23.426;2022-09-20T09:43:57;94737.75;;;17.00;56.46
17309;BME280;8772;42.804;23.426;2022-09-20T09:46:29;94733.84;;;17.01;54.09
17309;BME280;8772;42.804;23.426;2022-09-20T09:49:07;94738.31;;;16.86;52.36
17309;BME280;8772;42.804;23.426;2022-09-20T09:51:35;94732.03;;;16.98;54.73
17309;BME280;8772;42.804;23.426;2022-09-20T09:54:03;94737.03;;;17.17;56.28
17309;BME280;8772;42.804;23.426;2022-09-20T09:56:43;94727.00;;;17.27;55.81
17309;BME280;8772;42.804;23.426;2022-09-20T09:59:28;94735.13;;;17.36;52.50
17309;BME280;8772;42.804;23.426;2022-09-20T10:02:06;94731.66;;;17.71;54.58
17309;BME280;8772;42.804;23.426;2022-09-20T10:04:43;94727.53;;;18.02;53.72
17309;BME280;8772;42.804;23.426;2022-09-20T10:07:15;94716.09;;;18.07;51.01
17309;BME280;8772;42.804;23.426;2022-09-20T10:10:01;94721.16;;;18.32;52.29
17309;BME280;8772;42.804;23.426;2022-09-20T10:12:47;94716.25;;;18.54;50.93
17309;BME280;8772;42.804;23.426;2022-09-20T10:15:28;94722.19;;;18.76;52.20
17309;BME280;8772;42.804;23.426;2022-09-20T10:18:07;94719.41;;;18.85;49.41
17309;BME280;8772;42.804;23.426;2022-09-20T10:20:49;94720.50;;;18.79;46.87
17309;BME280;8772;42.804;23.426;2022-09-20T10:23:31;94712.59;;;18.66;48.24
17309;BME280;8772;42.804;23.426;2022-09-20T10:26:05;94719.16;;;18.74;46.34
17309;BME280;8772;42.804;23.426;2022-09-20T10:28:44;94702.91;;;18.74;48.83
17309;BME280;8772;42.804;23.426;2022-09-20T10:31:27;94706.94;;;18.55;49.03
17309;BME280;8772;42.804;23.426;2022-09-20T10:34:14;94699.78;;;18.67;49.50
17309;BME280;8772;42.804;23.426;2022-09-20T10:36:50;94702.25;;;18.88;49.05
17309;BME280;8772;42.804;23.426;2022-09-20T10:39:23;94702.41;;;19.08;49.56
17309;BME280;8772;42.804;23.426;2022-09-20T10:41:59;94696.06;;;19.35;47.39
17309;BME280;8772;42.804;23.426;2022-09-20T10:45:02;94689.75;;;19.52;49.38
17309;BME280;8772;42.804;23.426;2022-09-20T10:47:38;94702.66;;;19.86;47.76
17309;BME280;8772;42.804;23.426;2022-09-20T10:50:17;94691.09;;;19.86;44.46
17309;BME280;8772;42.804;23.426;2022-09-20T10:52:55;94684.75;;;20.03;47.99
17309;BME280;8772;42.804;23.426;2022-09-20T10:55:33;94684.16;;;20.28;45.29
17309;BME280;8772;42.804;23.426;2022-09-20T11:01:17;94692.09;;;20.46;44.55
17309;BME280;8772;42.804;23.426;2022-09-20T11:04:11;94690.97;;;20.87;45.20
17309;BME280;8772;42.804;23.426;2022-09-20T11:06:50;94687.22;;;21.04;43.79
17309;BME280;8772;42.804;23.426;2022-09-20T11:09:23;94703.78;;;21.01;42.14
17309;BME280;8772;42.804;23.426;2022-09-20T11:11:54;94682.72;;;20.81;42.03
17309;BME280;8772;42.804;23.426;2022-09-20T11:14:28;94684.06;;;20.71;42.54
17309;BME280;8772;42.804;23.426;2022-09-20T11:17:03;94673.53;;;20.79;41.25
17309;BME280;8772;42.804;23.426;2022-09-20T11:19:45;94686.19;;;20.33;40.86
17309;BME280;8772;42.804;23.426;2022-09-20T11:22:17;94671.59;;;20.02;42.05
17309;BME280;8772;42.804;23.426;2022-09-20T11:24:48;94671.16;;;20.03;41.45
17309;BME280;8772;42.804;23.426;2022-09-20T11:27:19;94674.22;;;19.96;43.76
17309;BME280;8772;42.804;23.426;2022-09-20T11:29:52;94671.44;;;19.76;44.27
17309;BME280;8772;42.804;23.426;2022-09-20T11:32:25;94667.28;;;19.52;42.41
17309;BME280;8772;42.804;23.426;2022-09-20T11:35:00;94664.44;;;19.08;42.17
17309;BME280;8772;42.804;23.426;2022-09-20T11:37:32;94661.41;;;19.15;44.67
17309;BME280;8772;42.804;23.426;2022-09-20T11:40:09;94667.31;;;19.05;43.00
17309;BME280;8772;42.804;23.426;2022-09-20T11:42:39;94666.91;;;18.83;45.55
17309;BME280;8772;42.804;23.426;2022-09-20T11:45:10;94667.06;;;18.79;44.61
17309;BME280;8772;42.804;23.426;2022-09-20T11:47:41;94660.19;;;18.93;46.75
17309;BME280;8772;42.804;23.426;2022-09-20T11:50:44;94658.41;;;18.90;44.31
17309;BME280;8772;42.804;23.426;2022-09-20T11:53:25;94642.25;;;18.95;46.00
17309;BME280;8772;42.804;23.426;2022-09-20T11:55:56;94641.97;;;18.93;42.98
17309;BME280;8772;42.804;23.426;2022-09-20T11:58:26;94643.91;;;18.93;44.67
17309;BME280;8772;42.804;23.426;2022-09-20T12:00:54;94649.41;;;19.07;46.70
17309;BME280;8772;42.804;23.426;2022-09-20T12:03:30;94647.84;;;18.92;44.14
17309;BME280;8772;42.804;23.426;2022-09-20T12:06:00;94642.94;;;19.05;45.51
17309;BME280;8772;42.804;23.426;2022-09-20T12:08:30;94637.06;;;19.06;44.99
17309;BME280;8772;42.804;23.426;2022-09-20T12:11:01;94641.25;;;19.07;46.20
17309;BME280;8772;42.804;23.426;2022-09-20T12:13:30;94640.41;;;19.01;45.09
17309;BME280;8772;42.804;23.426;2022-09-20T12:16:02;94645.28;;;18.50;45.23
17309;BME280;8772;42.804;23.426;2022-09-20T12:18:47;94649.13;;;18.26;45.79
17309;BME280;8772;42.804;23.426;2022-09-20T12:21:25;94645.66;;;18.25;48.04
17309;BME280;8772;42.804;23.426;2022-09-20T12:24:09;94632.75;;;18.53;47.92
17309;BME280;8772;42.804;23.426;2022-09-20T12:26:46;94644.59;;;18.64;48.36
17309;BME280;8772;42.804;23.426;2022-09-20T12:36:15;94640.66;;;18.65;46.26
17309;BME280;8772;42.804;23.426;2022-09-20T12:38:47;94636.75;;;18.66;47.65
17309;BME280;8772;42.804;23.426;2022-09-20T12:41:17;94639.03;;;18.82;46.55
17309;BME280;8772;42.804;23.426;2022-09-20T12:43:51;94629.56;;;19.01;46.59
17309;BME280;8772;42.804;23.426;2022-09-20T12:46:22;94625.38;;;19.00;44.49
17309;BME280;8772;42.804;23.426;2022-09-20T12:48:50;94629.75;;;19.12;44.69
17309;BME280;8772;42.804;23.426;2022-09-20T12:51:25;94617.13;;;19.33;44.33
17309;BME280;8772;42.804;23.426;2022-09-20T12:54:12;94634.16;;;19.33;44.01
17309;BME280;8772;42.804;23.426;2022-09-20T12:56:41;94612.66;;;19.44;43.42
17309;BME280;8772;42.804;23.426;2022-09-20T12:59:21;94622.56;;;19.33;43.80
17309;BME280;8772;42.804;23.426;2022-09-20T13:01:49;94622.34;;;19.36;42.61
17309;BME280;8772;42.804;23.426;2022-09-20T13:07:35;94630.03;;;19.38;43.47
17309;BME280;8772;42.804;23.426;2022-09-20T13:12:58;94609.09;;;19.38;43.36
17309;BME280;8772;42.804;23.426;2022-09-20T13:15:26;94603.38;;;19.36;43.35
17309;BME280;8772;42.804;23.426;2022-09-20T13:17:55;94615.44;;;19.35;43.74
17309;BME280;8772;42.804;23.426;2022-09-20T13:20:26;94621.81;;;19.32;43.37
17309;BME280;8772;42.804;23.426;2022-09-20T13:22:57;94607.56;;;19.37;42.67
17309;BME280;8772;42.804;23.426;2022-09-20T13:25:25;94606.47;;;19.44;42.18
17309;BME280;8772;42.804;23.426;2022-09-20T13:27:59;94611.34;;;19.25;41.71
17309;BME280;8772;42.804;23.426;2022-09-20T13:30:29;94606.81;;;19.22;42.79
17309;BME280;8772;42.804;23.426;2022-09-20T13:33:14;94607.75;;;19.19;42.78
17309;BME280;8772;42.804;23.426;2022-09-20T13:35:43;94602.53;;;19.30;42.90
17309;BME280;8772;42.804;23.426;2022-09-20T13:38:17;94604.59;;;19.50;43.33
17309;BME280;8772;42.804;23.426;2022-09-20T13:40:51;94602.06;;;19.46;42.45
17309;BME280;8772;42.804;23.426;2022-09-20T13:43:25;94602.66;;;19.50;42.44
17309;BME280;8772;42.804;23.426;2022-09-20T13:45:55;94604.31;;;19.33;41.63
17309;BME280;8772;42.804;23.426;2022-09-20T13:48:26;94596.56;;;19.26;42.14
17309;BME280;8772;42.804;23.426;2022-09-20T13:50:56;94606.81;;;19.22;43.28
17309;BME280;8772;42.804;23.426;2022-09-20T13:53:28;94604.59;;;18.97;42.68
17309;BME280;8772;42.804;23.426;2022-09-20T13:55:56;94604.75;;;18.79;43.74
17309;BME280;8772;42.804;23.426;2022-09-20T13:58:26;94609.41;;;18.55;43.42
17309;BME280;8772;42.804;23.426;2022-09-20T14:00:57;94611.59;;;18.42;43.63
17309;BME280;8772;42.804;23.426;2022-09-20T14:03:25;94609.22;;;18.35;44.71
17309;BME280;8772;42.804;23.426;2022-09-20T14:05:54;94602.44;;;18.40;44.43
17309;BME280;8772;42.804;23.426;2022-09-20T14:08:25;94602.03;;;18.23;43.83
17309;BME280;8772;42.804;23.426;2022-09-20T14:11:05;94606.63;;;18.08;42.15
17309;BME280;8772;42.804;23.426;2022-09-20T14:13:37;94606.09;;;17.95;43.76
17309;BME280;8772;42.804;23.426;2022-09-20T14:16:06;94597.00;;;18.07;43.25
17309;BME280;8772;42.804;23.426;2022-09-20T14:18:34;94596.97;;;18.16;44.56